Silvero — SDAK — position and weather

sailwx.info

Track history (hours):
 
Tides and Currents Weather Stations Pressure Air Temp Water Temp Dewpoint Dewpoint Depression Visibility Wind Speed Wind Dir Waves Ship Positions

Silvero

Last reported at 2017-Oct-20 13:30 UTC. Time now 2017-Oct-20 14:38 UTC.
Position N 59°24' E 018°22'.

Length 22 m.

Type: Passenger vessel. MMSI: 265568520.

Date/timePositionNaut miles runAvg speedWind from/ knotsBaromVisibWave heightAir tempDewpointWater temp
2017-Oct-20 13:30N 59°24' E 018°22'0 0.7
2017-Oct-20 13:00N 59°24' E 018°23'0 0.0
2017-Oct-20 12:30N 59°24' E 018°23'1 1.7
2017-Oct-20 12:00N 59°24' E 018°21'1 2.3
2017-Oct-20 11:30N 59°24' E 018°23'1 2.3
2017-Oct-20 11:00N 59°24' E 018°21'0 0.1
2017-Oct-20 10:30N 59°24' E 018°21'2 3.3
2017-Oct-20 10:00N 59°23' E 018°24'2 3.3
2017-Oct-20 09:30N 59°24' E 018°21'0 0.1
2017-Oct-20 08:59N 59°24' E 018°21'0 0.0
2017-Oct-20 08:29N 59°24' E 018°21'0 0.0
2017-Oct-20 08:00N 59°24' E 018°21'1 2.9
2017-Oct-20 07:30N 59°23' E 018°24'2 4.1
2017-Oct-20 06:58N 59°21' E 018°26'3 5.6
2017-Oct-20 06:30N 59°24' E 018°23'0 0.1
2017-Oct-20 06:01N 59°24' E 018°23'1 1.7
2017-Oct-20 05:30N 59°24' E 018°21'0 0.1
2017-Oct-20 05:00N 59°24' E 018°21'1 1.4
2017-Oct-20 04:30N 59°25' E 018°22'1 1.4
2017-Oct-20 04:00N 59°24' E 018°21'0 0.0
2017-Oct-20 03:30N 59°24' E 018°21'0 0.0
2017-Oct-20 03:00N 59°24' E 018°21'0 0.0
2017-Oct-20 02:31N 59°24' E 018°21'0 0.0
2017-Oct-20 02:00N 59°24' E 018°21'0 0.0
2017-Oct-20 01:30N 59°24' E 018°21'0 0.0
2017-Oct-20 01:00N 59°24' E 018°21'0 0.0
2017-Oct-20 00:30N 59°24' E 018°21'0 0.0
2017-Oct-20 00:00N 59°24' E 018°21'0 0.0
2017-Oct-19 23:30N 59°24' E 018°21'0 0.0
2017-Oct-19 23:00N 59°24' E 018°21'0 0.0
2017-Oct-19 22:30N 59°24' E 018°21'0 0.0
2017-Oct-19 22:00N 59°24' E 018°21'0 0.0
2017-Oct-19 21:30N 59°24' E 018°21'0 0.0
2017-Oct-19 21:00N 59°24' E 018°21'0 0.0
2017-Oct-19 20:30N 59°24' E 018°21'0 0.0
2017-Oct-19 20:00N 59°24' E 018°21'0 0.0
2017-Oct-19 19:30N 59°24' E 018°21'0 0.0
2017-Oct-19 19:00N 59°24' E 018°21'0 0.0
2017-Oct-19 18:31N 59°24' E 018°21'0 0.0
2017-Oct-19 18:00N 59°24' E 018°21'1 0.4
2017-Oct-19 16:12N 59°24' E 018°22'1 0.6
2017-Oct-19 15:02N 59°24' E 018°21'0 0.2
2017-Oct-19 14:56N 59°24' E 018°21'0 0.0
2017-Oct-19 14:29N 59°24' E 018°21'0 0.0
2017-Oct-19 13:58N 59°24' E 018°21'4 7.5
2017-Oct-19 13:30N 59°22' E 018°26'0 0.0
2017-Oct-19 13:00N 59°22' E 018°26'2 4.3
2017-Oct-19 12:29N 59°23' E 018°24'1 2.6
2017-Oct-19 12:00N 59°24' E 018°21'0 0.3
2017-Oct-19 11:31N 59°24' E 018°21'0 0.1
2017-Oct-19 11:00N 59°24' E 018°21'0 0.0
2017-Oct-19 10:15N 59°24' E 018°21'0 0.0
2017-Oct-19 10:00N 59°24' E 018°21'0 0.0
2017-Oct-19 09:30N 59°24' E 018°21'0 0.0
2017-Oct-19 09:00N 59°24' E 018°21'0 0.0
2017-Oct-19 08:29N 59°24' E 018°21'0 0.0
2017-Oct-19 07:59N 59°24' E 018°21'1 2.8
2017-Oct-19 07:30N 59°23' E 018°24'2 3.3
2017-Oct-19 06:56N 59°22' E 018°26'3 7.7
2017-Oct-19 06:30N 59°24' E 018°21'1 2.2
2017-Oct-19 06:00N 59°24' E 018°23'1 2.3
2017-Oct-19 05:30N 59°24' E 018°21'0 0.3
2017-Oct-19 05:00N 59°24' E 018°22'1 1.1
2017-Oct-19 04:30N 59°25' E 018°22'1 1.2
2017-Oct-19 04:00N 59°24' E 018°21'0 0.0
2017-Oct-19 03:30N 59°24' E 018°21'0 0.0
2017-Oct-19 03:00N 59°24' E 018°21'0 0.0
2017-Oct-19 02:30N 59°24' E 018°21'0 0.0
2017-Oct-19 02:00N 59°24' E 018°21'0 0.0
2017-Oct-19 01:30N 59°24' E 018°21'0 0.0
2017-Oct-19 01:00N 59°24' E 018°21'0 0.0
2017-Oct-19 00:30N 59°24' E 018°21'0 0.0
2017-Oct-19 00:00N 59°24' E 018°21'0 0.0
2017-Oct-18 23:30N 59°24' E 018°21'0 0.0
2017-Oct-18 23:00N 59°24' E 018°21'0 0.0
2017-Oct-18 22:30N 59°24' E 018°21'0 0.0
2017-Oct-18 22:00N 59°24' E 018°21'0 0.0
2017-Oct-18 21:30N 59°24' E 018°21'0 0.0
2017-Oct-18 21:00N 59°24' E 018°21'0 0.0
2017-Oct-18 20:30N 59°24' E 018°21'0 0.0
2017-Oct-18 20:00N 59°24' E 018°21'0 0.0
2017-Oct-18 19:30N 59°24' E 018°21'0 0.0
2017-Oct-18 18:59N 59°24' E 018°21'0 0.0
2017-Oct-18 18:30N 59°24' E 018°21'0 0.0
2017-Oct-18 17:59N 59°24' E 018°21'0 0.0
2017-Oct-18 17:30N 59°24' E 018°21'1 2.5
2017-Oct-18 16:59N 59°25' E 018°22'1 2.7
2017-Oct-18 16:30N 59°24' E 018°21'1 2.4
2017-Oct-18 16:00N 59°24' E 018°23'1 2.2
2017-Oct-18 15:31N 59°24' E 018°21'0 0.2
2017-Oct-18 15:01N 59°24' E 018°21'0 0.0
2017-Oct-18 14:00N 59°24' E 018°21'1 1.6
2017-Oct-18 13:30N 59°24' E 018°23'1 1.5
2017-Oct-18 12:59N 59°23' E 018°24'2 3.7
2017-Oct-18 12:30N 59°22' E 018°26'3 5.3
2017-Oct-18 12:00N 59°24' E 018°22'1 1.5
2017-Oct-18 11:30N 59°23' E 018°23'1 2.5
2017-Oct-18 11:00N 59°24' E 018°21'0 0.0
2017-Oct-18 10:30N 59°24' E 018°21'1 1.8
2017-Oct-18 10:01N 59°24' E 018°23'1 1.7
2017-Oct-18 09:30N 59°24' E 018°21'0 0.1
2017-Oct-18 09:00N 59°24' E 018°21'0 0.0
2017-Oct-18 08:30N 59°24' E 018°21'0 0.0
2017-Oct-18 08:00N 59°24' E 018°21'3 4.3
2017-Oct-18 07:12N 59°22' E 018°27'3 0.3
2017-Oct-17 18:12N 59°24' E 018°21'0 0.0
2017-Oct-17 18:00N 59°24' E 018°21'0 0.0
2017-Oct-17 17:30N 59°24' E 018°21'1 2.7
2017-Oct-17 17:00N 59°25' E 018°22'1 2.7
2017-Oct-17 16:30N 59°24' E 018°21'1 2.8
2017-Oct-17 16:00N 59°23' E 018°24'1 1.3
2017-Oct-17 15:30N 59°24' E 018°22'1 1.4
2017-Oct-17 15:00N 59°24' E 018°21'1 1.5
2017-Oct-17 14:30N 59°24' E 018°23'1 1.6
2017-Oct-17 14:00N 59°24' E 018°21'1 1.6
2017-Oct-17 13:30N 59°24' E 018°23'1 1.8
2017-Oct-17 13:00N 59°23' E 018°24'2 3.5
2017-Oct-17 12:31N 59°22' E 018°26'2 4.7
2017-Oct-17 12:00N 59°24' E 018°23'0 0.4
2017-Oct-17 11:29N 59°24' E 018°23'1 2.1
2017-Oct-17 11:00N 59°24' E 018°21'0 0.9
2017-Oct-17 10:30N 59°24' E 018°22'1 1.2
2017-Oct-17 10:00N 59°24' E 018°23'1 1.8
2017-Oct-17 09:30N 59°24' E 018°21'0 0.1
2017-Oct-17 09:00N 59°24' E 018°21'0 0.0
2017-Oct-17 08:30N 59°24' E 018°21'0 0.0
2017-Oct-17 08:00N 59°24' E 018°21'1 2.9
2017-Oct-17 07:30N 59°23' E 018°24'2 3.1
2017-Oct-17 06:51N 59°22' E 018°27'3 8.1
2017-Oct-17 06:29N 59°24' E 018°22'1 1.6
2017-Oct-17 06:00N 59°24' E 018°23'1 2.5
2017-Oct-17 05:30N 59°24' E 018°21'0 0.0
2017-Oct-17 05:00N 59°24' E 018°21'1 1.5
2017-Oct-17 04:30N 59°25' E 018°22'1 1.4
2017-Oct-17 04:00N 59°24' E 018°21'0 0.0
2017-Oct-17 03:30N 59°24' E 018°21'0 0.0
2017-Oct-17 03:00N 59°24' E 018°21'0 0.0
2017-Oct-17 02:30N 59°24' E 018°21'0 0.0
2017-Oct-17 02:00N 59°24' E 018°21'0 0.0
2017-Oct-17 01:30N 59°24' E 018°21'0 0.0
2017-Oct-17 01:00N 59°24' E 018°21'0 0.0
2017-Oct-17 00:30N 59°24' E 018°21'0 0.0
2017-Oct-17 00:00N 59°24' E 018°21'0 0.0
2017-Oct-16 23:29N 59°24' E 018°21'0 0.0
2017-Oct-16 23:00N 59°24' E 018°21'0 0.0
2017-Oct-16 22:30N 59°24' E 018°21'0 0.0
2017-Oct-16 22:00N 59°24' E 018°21'0 0.0
2017-Oct-16 21:30N 59°24' E 018°21'0 0.0
2017-Oct-16 21:00N 59°24' E 018°21'0 0.0
2017-Oct-16 20:30N 59°24' E 018°21'0 0.0
2017-Oct-16 20:00N 59°24' E 018°21'0 0.0
2017-Oct-16 19:30N 59°24' E 018°21'0 0.0
2017-Oct-16 19:00N 59°24' E 018°21'0 0.0
2017-Oct-16 18:30N 59°24' E 018°21'0 0.0
2017-Oct-16 18:00N 59°24' E 018°21'0 0.0
2017-Oct-16 17:30N 59°24' E 018°21'1 2.3
2017-Oct-16 16:57N 59°25' E 018°22'1 2.9
2017-Oct-16 16:30N 59°24' E 018°21'1 2.0
2017-Oct-16 16:00N 59°24' E 018°23'0 0.3
2017-Oct-16 15:30N 59°24' E 018°23'1 1.6
2017-Oct-16 15:01N 59°24' E 018°21'1 1.5
2017-Oct-16 14:30N 59°24' E 018°22'0 0.2
2017-Oct-16 13:29N 59°24' E 018°22'1 2.9
2017-Oct-16 13:00N 59°23' E 018°25'2 3.2
2017-Oct-16 12:28N 59°22' E 018°26'3 7.0
2017-Oct-16 12:00N 59°24' E 018°22'1 1.8
2017-Oct-16 11:30N 59°24' E 018°23'1 2.2
2017-Oct-16 11:00N 59°24' E 018°21'0 0.1
2017-Oct-16 10:30N 59°24' E 018°21'2 4.1
2017-Oct-16 09:59N 59°23' E 018°25'2 4.6
2017-Oct-16 09:31N 59°24' E 018°21'0 0.1
2017-Oct-16 08:59N 59°24' E 018°21'0 0.0
2017-Oct-16 08:30N 59°24' E 018°21'0 0.0
2017-Oct-16 08:00N 59°24' E 018°21'1 3.0
2017-Oct-16 07:31N 59°23' E 018°24'1 1.8
2017-Oct-16 06:49N 59°23' E 018°26'2 6.9
2017-Oct-16 06:30N 59°24' E 018°22'1 1.2
2017-Oct-16 06:00N 59°24' E 018°23'1 2.4
2017-Oct-16 05:30N 59°24' E 018°21'0 0.1
2017-Oct-16 05:01N 59°24' E 018°21'1 1.6
2017-Oct-16 04:30N 59°25' E 018°22'1 1.5
2017-Oct-16 03:59N 59°24' E 018°21'0 0.0
2017-Oct-16 03:30N 59°24' E 018°21'0 0.0
2017-Oct-16 03:00N 59°24' E 018°21'0 0.0
2017-Oct-16 02:30N 59°24' E 018°21'0 0.0
2017-Oct-16 02:00N 59°24' E 018°21'0 0.0
2017-Oct-16 01:30N 59°24' E 018°21'0 0.0
2017-Oct-16 01:00N 59°24' E 018°21'0 0.0
2017-Oct-16 00:30N 59°24' E 018°21'0 0.0
2017-Oct-16 00:00N 59°24' E 018°21'0 0.0
2017-Oct-15 23:30N 59°24' E 018°21'0 0.0
2017-Oct-15 23:00N 59°24' E 018°21'0 0.0
2017-Oct-15 22:29N 59°24' E 018°21'0 0.0
2017-Oct-15 22:00N 59°24' E 018°21'0 0.0
2017-Oct-15 21:30N 59°24' E 018°21'0 0.0
2017-Oct-15 21:01N 59°24' E 018°21'0 0.0
2017-Oct-15 20:30N 59°24' E 018°21'0 0.0
2017-Oct-15 20:00N 59°24' E 018°21'0 0.0
2017-Oct-15 19:30N 59°24' E 018°21'0 0.0
2017-Oct-15 19:00N 59°24' E 018°21'0 0.0
2017-Oct-15 18:30N 59°24' E 018°21'0 0.0
2017-Oct-15 18:00N 59°24' E 018°21'0 0.0
2017-Oct-15 17:30N 59°24' E 018°21'0 0.0
2017-Oct-15 17:00N 59°24' E 018°21'2 3.0
2017-Oct-15 16:30N 59°23' E 018°24'1 1.9
2017-Oct-15 16:00N 59°24' E 018°22'1 2.0
2017-Oct-15 15:30N 59°23' E 018°24'2 2.7
2017-Oct-15 14:47N 59°22' E 018°26'3 4.3
2017-Oct-15 13:59N 59°24' E 018°21'1 2.7
2017-Oct-15 13:27N 59°25' E 018°22'4 7.9
2017-Oct-15 13:00N 59°27' E 018°29'1 1.6
2017-Oct-15 12:23N 59°28' E 018°27'3 6.8
2017-Oct-15 12:00N 59°26' E 018°23'2 3.2
2017-Oct-15 11:31N 59°25' E 018°21'1 2.9
2017-Oct-15 11:00N 59°24' E 018°23'0 0.7
2017-Oct-15 10:31N 59°24' E 018°22'1 1.3
2017-Oct-15 10:00N 59°24' E 018°21'2 3.3
2017-Oct-15 09:30N 59°23' E 018°24'2 2.2
2017-Oct-15 08:43N 59°22' E 018°26'1 5.4
2017-Oct-15 08:28N 59°23' E 018°25'2 4.9
2017-Oct-15 08:00N 59°25' E 018°22'1 1.3
2017-Oct-15 07:30N 59°24' E 018°21'0 0.0
2017-Oct-15 07:00N 59°24' E 018°21'1 2.0
2017-Oct-15 06:30N 59°24' E 018°23'1 2.1
2017-Oct-15 06:00N 59°24' E 018°21'0 0.0
2017-Oct-15 05:30N 59°24' E 018°21'0 0.0
2017-Oct-15 05:00N 59°24' E 018°21'0 0.0
2017-Oct-15 04:30N 59°24' E 018°21'0 0.0
2017-Oct-15 04:00N 59°24' E 018°21'0 0.0
2017-Oct-15 03:30N 59°24' E 018°21'0 0.0
2017-Oct-15 03:00N 59°24' E 018°21'0 0.0
2017-Oct-15 02:30N 59°24' E 018°21'0 0.0
2017-Oct-15 02:00N 59°24' E 018°21'0 0.0
2017-Oct-15 01:30N 59°24' E 018°21'0 0.0
2017-Oct-15 01:00N 59°24' E 018°21'0 0.0
2017-Oct-15 00:30N 59°24' E 018°21'0 0.0
2017-Oct-15 00:00N 59°24' E 018°21'0 0.0
2017-Oct-14 23:30N 59°24' E 018°21'0 0.0
2017-Oct-14 23:00N 59°24' E 018°21'0 0.0
2017-Oct-14 22:30N 59°24' E 018°21'0 0.0
2017-Oct-14 22:00N 59°24' E 018°21'0 0.0
2017-Oct-14 21:30N 59°24' E 018°21'0 0.0
2017-Oct-14 21:00N 59°24' E 018°21'0 0.0
2017-Oct-14 20:30N 59°24' E 018°21'0 0.0
2017-Oct-14 20:00N 59°24' E 018°21'0 0.0
2017-Oct-14 19:30N 59°24' E 018°21'0 0.0
2017-Oct-14 18:59N 59°24' E 018°21'0 0.0
2017-Oct-14 18:29N 59°24' E 018°21'0 0.0
2017-Oct-14 18:00N 59°24' E 018°21'0 0.0
2017-Oct-14 17:29N 59°24' E 018°21'0 0.0
2017-Oct-14 17:00N 59°24' E 018°21'0 0.0
2017-Oct-14 16:30N 59°24' E 018°21'0 0.0
2017-Oct-14 16:00N 59°24' E 018°21'1 2.6
2017-Oct-14 15:30N 59°24' E 018°24'1 2.4
2017-Oct-14 14:58N 59°24' E 018°21'1 2.6
2017-Oct-14 14:30N 59°24' E 018°23'1 2.5
2017-Oct-14 14:00N 59°24' E 018°21'0 1.0
2017-Oct-14 13:30N 59°24' E 018°22'3 5.7
2017-Oct-14 13:00N 59°22' E 018°26'1 1.9
2017-Oct-14 12:30N 59°23' E 018°25'2 4.7
2017-Oct-14 12:00N 59°24' E 018°21'1 1.4
2017-Oct-14 11:30N 59°25' E 018°22'1 1.4
2017-Oct-14 11:00N 59°24' E 018°21'0 0.0
2017-Oct-14 10:30N 59°24' E 018°21'1 2.0
2017-Oct-14 10:00N 59°24' E 018°23'0 0.7
2017-Oct-14 09:30N 59°24' E 018°22'3 6.5
2017-Oct-14 09:00N 59°26' E 018°26'0 0.9
2017-Oct-14 08:29N 59°26' E 018°25'3 6.2
2017-Oct-14 08:00N 59°24' E 018°21'2 3.7
2017-Oct-14 07:30N 59°23' E 018°24'2 3.1
2017-Oct-14 06:59N 59°22' E 018°26'3 5.5
2017-Oct-14 06:30N 59°24' E 018°23'0 0.3
2017-Oct-14 06:00N 59°24' E 018°23'1 2.2
2017-Oct-14 05:30N 59°24' E 018°21'0 0.0
2017-Oct-14 05:00N 59°24' E 018°21'0 0.0
2017-Oct-14 04:30N 59°24' E 018°21'0 0.0
2017-Oct-14 04:00N 59°24' E 018°21'0 0.0
2017-Oct-14 03:30N 59°24' E 018°21'0 0.0
2017-Oct-14 03:00N 59°24' E 018°21'0 0.0
2017-Oct-14 02:30N 59°24' E 018°21'0 0.0
2017-Oct-14 02:00N 59°24' E 018°21'0 0.0
2017-Oct-14 01:29N 59°24' E 018°21'0 0.0
2017-Oct-14 01:00N 59°24' E 018°21'0 0.0
2017-Oct-14 00:30N 59°24' E 018°21'0 0.0
2017-Oct-14 00:00N 59°24' E 018°21'0 0.0
2017-Oct-13 23:30N 59°24' E 018°21'0 0.0
2017-Oct-13 23:00N 59°24' E 018°21'0 0.0
2017-Oct-13 22:30N 59°24' E 018°21'0 0.0
2017-Oct-13 22:00N 59°24' E 018°21'0 0.0
2017-Oct-13 21:30N 59°24' E 018°21'0 0.0
2017-Oct-13 21:00N 59°24' E 018°21'0 0.0
2017-Oct-13 20:30N 59°24' E 018°21'0 0.0
2017-Oct-13 20:00N 59°24' E 018°21'0 0.0
2017-Oct-13 19:30N 59°24' E 018°21'0 0.0
2017-Oct-13 19:00N 59°24' E 018°21'0 0.0
2017-Oct-13 18:30N 59°24' E 018°21'0 0.9
2017-Oct-13 18:01N 59°24' E 018°22'1 2.9
2017-Oct-13 17:30N 59°23' E 018°25'1 1.4
2017-Oct-13 17:00N 59°23' E 018°26'3 5.1
2017-Oct-13 16:30N 59°24' E 018°21'2 3.2
2017-Oct-13 16:00N 59°23' E 018°24'2 3.0
2017-Oct-13 15:28N 59°24' E 018°21'0 0.0
2017-Oct-13 15:00N 59°24' E 018°21'2 3.1
2017-Oct-13 14:30N 59°23' E 018°24'2 3.3
2017-Oct-13 14:00N 59°25' E 018°22'1 1.8
2017-Oct-13 13:31N 59°24' E 018°22'1 1.7
2017-Oct-13 13:00N 59°23' E 018°24'1 1.1
2017-Oct-13 12:30N 59°24' E 018°23'1 1.7
2017-Oct-13 12:00N 59°24' E 018°21'1 2.1
2017-Oct-13 11:30N 59°24' E 018°23'1 2.1
2017-Oct-13 11:00N 59°24' E 018°21'0 0.0
2017-Oct-13 10:30N 59°24' E 018°21'2 3.4
2017-Oct-13 10:00N 59°23' E 018°24'2 3.4
2017-Oct-13 09:30N 59°24' E 018°21'0 0.0
2017-Oct-13 08:57N 59°24' E 018°21'0 0.0
2017-Oct-13 08:29N 59°24' E 018°21'0 0.0
2017-Oct-13 08:00N 59°24' E 018°21'1 2.9
2017-Oct-13 07:30N 59°23' E 018°24'2 3.2
2017-Oct-13 06:53N 59°22' E 018°26'3 6.6
2017-Oct-13 06:30N 59°24' E 018°23'0 0.0
2017-Oct-13 06:00N 59°24' E 018°23'1 1.7
2017-Oct-13 05:30N 59°24' E 018°21'0 0.0
2017-Oct-13 05:00N 59°24' E 018°21'0 0.9
2017-Oct-13 04:30N 59°25' E 018°22'0 0.9
2017-Oct-13 04:00N 59°24' E 018°21'0 0.0
2017-Oct-13 03:30N 59°24' E 018°21'0 0.0
2017-Oct-13 03:00N 59°24' E 018°21'0 0.0
2017-Oct-13 02:30N 59°24' E 018°21'0 0.0
2017-Oct-13 02:00N 59°24' E 018°21'0 0.0
2017-Oct-13 01:30N 59°24' E 018°21'0 0.0
2017-Oct-13 01:00N 59°24' E 018°21'0 0.0
2017-Oct-13 00:30N 59°24' E 018°21'0 0.0
2017-Oct-13 00:00N 59°24' E 018°21'0 0.0
2017-Oct-12 23:30N 59°24' E 018°21'0 0.0
2017-Oct-12 23:01N 59°24' E 018°21'0 0.0
2017-Oct-12 22:30N 59°24' E 018°21'0 0.0
2017-Oct-12 22:00N 59°24' E 018°21'0 0.0
2017-Oct-12 21:31N 59°24' E 018°21'0 0.0
2017-Oct-12 21:00N 59°24' E 018°21'0 0.0
2017-Oct-12 20:30N 59°24' E 018°21'0 0.0
2017-Oct-12 20:00N 59°24' E 018°21'0 0.0
2017-Oct-12 19:30N 59°24' E 018°21'0 0.0
2017-Oct-12 19:01N 59°24' E 018°21'0 0.0
2017-Oct-12 18:29N 59°24' E 018°21'0 0.0
2017-Oct-12 18:00N 59°24' E 018°21'0 0.0
2017-Oct-12 17:31N 59°24' E 018°21'1 2.6
2017-Oct-12 17:01N 59°25' E 018°22'1 2.6
2017-Oct-12 16:31N 59°24' E 018°22'1 2.2
2017-Oct-12 16:00N 59°23' E 018°24'1 2.2
2017-Oct-12 15:30N 59°24' E 018°22'0 0.7
2017-Oct-12 15:00N 59°24' E 018°21'1 1.6
2017-Oct-12 14:30N 59°24' E 018°23'1 1.6
2017-Oct-12 13:59N 59°24' E 018°21'1 1.2
2017-Oct-12 13:30N 59°24' E 018°22'1 2.1
2017-Oct-12 13:00N 59°23' E 018°24'2 3.5
2017-Oct-12 12:30N 59°22' E 018°26'2 4.8
2017-Oct-12 12:01N 59°24' E 018°23'0 0.0
2017-Oct-12 11:30N 59°24' E 018°23'1 0.6
2017-Oct-12 10:08N 59°24' E 018°21'1 6.4
2017-Oct-12 10:00N 59°24' E 018°23'1 1.6
2017-Oct-12 09:30N 59°24' E 018°21'0 0.0
2017-Oct-12 09:00N 59°24' E 018°21'0 0.0
2017-Oct-12 08:30N 59°24' E 018°21'0 0.0
2017-Oct-12 07:47N 59°24' E 018°21'2 5.5
2017-Oct-12 07:30N 59°23' E 018°24'1 1.2
2017-Oct-12 06:44N 59°23' E 018°26'2 9.6
2017-Oct-12 06:30N 59°24' E 018°22'1 1.3
2017-Oct-12 06:00N 59°24' E 018°23'1 1.7
2017-Oct-12 05:30N 59°24' E 018°21'0 0.0
2017-Oct-12 04:59N 59°24' E 018°21'1 1.4
2017-Oct-12 04:30N 59°25' E 018°22'1 1.4
2017-Oct-12 04:00N 59°24' E 018°21'0 0.0
2017-Oct-12 03:30N 59°24' E 018°21'0 0.0
2017-Oct-12 03:00N 59°24' E 018°21'0 0.0
2017-Oct-12 02:30N 59°24' E 018°21'0 0.0
2017-Oct-12 02:00N 59°24' E 018°21'0 0.0
2017-Oct-12 01:30N 59°24' E 018°21'0 0.0
2017-Oct-12 01:00N 59°24' E 018°21'0 0.0
2017-Oct-12 00:30N 59°24' E 018°21'0 0.0
2017-Oct-12 00:00N 59°24' E 018°21'0 0.0
2017-Oct-11 23:30N 59°24' E 018°21'0 0.0
2017-Oct-11 23:00N 59°24' E 018°21'0 0.0
2017-Oct-11 22:30N 59°24' E 018°21'0 0.0
2017-Oct-11 22:00N 59°24' E 018°21'0 0.0
2017-Oct-11 21:30N 59°24' E 018°21'0 0.0
2017-Oct-11 21:00N 59°24' E 018°21'0 0.0
2017-Oct-11 20:30N 59°24' E 018°21'0 0.0
2017-Oct-11 20:00N 59°24' E 018°21'0 0.0
2017-Oct-11 19:30N 59°24' E 018°21'0 0.0
2017-Oct-11 19:00N 59°24' E 018°21'0 0.0
2017-Oct-11 18:30N 59°24' E 018°21'0 0.0
2017-Oct-11 18:00N 59°24' E 018°21'0 0.0
2017-Oct-11 17:30N 59°24' E 018°21'1 2.7
2017-Oct-11 17:00N 59°25' E 018°22'1 0.1
2017-Oct-11 00:00N 59°24' E 018°21'0 0.0
2017-Oct-10 23:31N 59°24' E 018°21'0 0.0
2017-Oct-10 23:00N 59°24' E 018°21'0 0.0
2017-Oct-10 22:30N 59°24' E 018°21'0 0.0
2017-Oct-10 22:00N 59°24' E 018°21'0 0.0
2017-Oct-10 21:30N 59°24' E 018°21'0 0.0
2017-Oct-10 21:00N 59°24' E 018°21'0 0.0
2017-Oct-10 20:30N 59°24' E 018°21'0 0.0
2017-Oct-10 20:00N 59°24' E 018°21'0 0.0
2017-Oct-10 19:30N 59°24' E 018°21'0 0.0
2017-Oct-10 19:00N 59°24' E 018°21'0 0.0
2017-Oct-10 18:30N 59°24' E 018°21'0 0.0
2017-Oct-10 18:00N 59°24' E 018°21'0 0.0
2017-Oct-10 17:30N 59°24' E 018°21'1 2.7
2017-Oct-10 16:59N 59°25' E 018°22'1 2.7
2017-Oct-10 16:30N 59°24' E 018°21'1 2.3
2017-Oct-10 15:59N 59°23' E 018°23'0 0.7
2017-Oct-10 15:30N 59°24' E 018°23'1 1.7
2017-Oct-10 15:01N 59°24' E 018°21'0 0.0
2017-Oct-10 14:00N 59°24' E 018°21'1 1.3
2017-Oct-10 13:30N 59°24' E 018°22'  
Track history (hours):
 
Tides and Currents Weather Stations Pressure Air Temp Water Temp Dewpoint Dewpoint Depression Visibility Wind Speed Wind Dir Waves Ship Positions

Silvero

Last reported at 2017-Oct-20 13:30 UTC. Time now 2017-Oct-20 14:38 UTC.
Position N 59°24' E 018°22'.

Length 22 m.

Type: Passenger vessel. MMSI: 265568520.

Date/timePositionNaut miles runAvg speedWind from/ knotsBaromVisibWave heightAir tempDewpointWater temp
2017-Oct-20 13:30N 59°24' E 018°22'0 0.7
2017-Oct-20 13:00N 59°24' E 018°23'0 0.0
2017-Oct-20 12:30N 59°24' E 018°23'1 1.7
2017-Oct-20 12:00N 59°24' E 018°21'1 2.3
2017-Oct-20 11:30N 59°24' E 018°23'1 2.3
2017-Oct-20 11:00N 59°24' E 018°21'0 0.1
2017-Oct-20 10:30N 59°24' E 018°21'2 3.3
2017-Oct-20 10:00N 59°23' E 018°24'2 3.3
2017-Oct-20 09:30N 59°24' E 018°21'0 0.1
2017-Oct-20 08:59N 59°24' E 018°21'0 0.0
2017-Oct-20 08:29N 59°24' E 018°21'0 0.0
2017-Oct-20 08:00N 59°24' E 018°21'1 2.9
2017-Oct-20 07:30N 59°23' E 018°24'2 4.1
2017-Oct-20 06:58N 59°21' E 018°26'3 5.6
2017-Oct-20 06:30N 59°24' E 018°23'0 0.1
2017-Oct-20 06:01N 59°24' E 018°23'1 1.7
2017-Oct-20 05:30N 59°24' E 018°21'0 0.1
2017-Oct-20 05:00N 59°24' E 018°21'1 1.4
2017-Oct-20 04:30N 59°25' E 018°22'1 1.4
2017-Oct-20 04:00N 59°24' E 018°21'0 0.0
2017-Oct-20 03:30N 59°24' E 018°21'0 0.0
2017-Oct-20 03:00N 59°24' E 018°21'0 0.0
2017-Oct-20 02:31N 59°24' E 018°21'0 0.0
2017-Oct-20 02:00N 59°24' E 018°21'0 0.0
2017-Oct-20 01:30N 59°24' E 018°21'0 0.0
2017-Oct-20 01:00N 59°24' E 018°21'0 0.0
2017-Oct-20 00:30N 59°24' E 018°21'0 0.0
2017-Oct-20 00:00N 59°24' E 018°21'0 0.0
2017-Oct-19 23:30N 59°24' E 018°21'0 0.0
2017-Oct-19 23:00N 59°24' E 018°21'0 0.0
2017-Oct-19 22:30N 59°24' E 018°21'0 0.0
2017-Oct-19 22:00N 59°24' E 018°21'0 0.0
2017-Oct-19 21:30N 59°24' E 018°21'0 0.0
2017-Oct-19 21:00N 59°24' E 018°21'0 0.0
2017-Oct-19 20:30N 59°24' E 018°21'0 0.0
2017-Oct-19 20:00N 59°24' E 018°21'0 0.0
2017-Oct-19 19:30N 59°24' E 018°21'0 0.0
2017-Oct-19 19:00N 59°24' E 018°21'0 0.0
2017-Oct-19 18:31N 59°24' E 018°21'0 0.0
2017-Oct-19 18:00N 59°24' E 018°21'1 0.4
2017-Oct-19 16:12N 59°24' E 018°22'1 0.6
2017-Oct-19 15:02N 59°24' E 018°21'0 0.2
2017-Oct-19 14:56N 59°24' E 018°21'0 0.0
2017-Oct-19 14:29N 59°24' E 018°21'0 0.0
2017-Oct-19 13:58N 59°24' E 018°21'4 7.5
2017-Oct-19 13:30N 59°22' E 018°26'0 0.0
2017-Oct-19 13:00N 59°22' E 018°26'2 4.3
2017-Oct-19 12:29N 59°23' E 018°24'1 2.6
2017-Oct-19 12:00N 59°24' E 018°21'0 0.3
2017-Oct-19 11:31N 59°24' E 018°21'0 0.1
2017-Oct-19 11:00N 59°24' E 018°21'0 0.0
2017-Oct-19 10:15N 59°24' E 018°21'0 0.0
2017-Oct-19 10:00N 59°24' E 018°21'0 0.0
2017-Oct-19 09:30N 59°24' E 018°21'0 0.0
2017-Oct-19 09:00N 59°24' E 018°21'0 0.0
2017-Oct-19 08:29N 59°24' E 018°21'0 0.0
2017-Oct-19 07:59N 59°24' E 018°21'1 2.8
2017-Oct-19 07:30N 59°23' E 018°24'2 3.3
2017-Oct-19 06:56N 59°22' E 018°26'3 7.7
2017-Oct-19 06:30N 59°24' E 018°21'1 2.2
2017-Oct-19 06:00N 59°24' E 018°23'1 2.3
2017-Oct-19 05:30N 59°24' E 018°21'0 0.3
2017-Oct-19 05:00N 59°24' E 018°22'1 1.1
2017-Oct-19 04:30N 59°25' E 018°22'1 1.2
2017-Oct-19 04:00N 59°24' E 018°21'0 0.0
2017-Oct-19 03:30N 59°24' E 018°21'0 0.0
2017-Oct-19 03:00N 59°24' E 018°21'0 0.0
2017-Oct-19 02:30N 59°24' E 018°21'0 0.0
2017-Oct-19 02:00N 59°24' E 018°21'0 0.0
2017-Oct-19 01:30N 59°24' E 018°21'0 0.0
2017-Oct-19 01:00N 59°24' E 018°21'0 0.0
2017-Oct-19 00:30N 59°24' E 018°21'0 0.0
2017-Oct-19 00:00N 59°24' E 018°21'0 0.0
2017-Oct-18 23:30N 59°24' E 018°21'0 0.0
2017-Oct-18 23:00N 59°24' E 018°21'0 0.0
2017-Oct-18 22:30N 59°24' E 018°21'0 0.0
2017-Oct-18 22:00N 59°24' E 018°21'0 0.0
2017-Oct-18 21:30N 59°24' E 018°21'0 0.0
2017-Oct-18 21:00N 59°24' E 018°21'0 0.0
2017-Oct-18 20:30N 59°24' E 018°21'0 0.0
2017-Oct-18 20:00N 59°24' E 018°21'0 0.0
2017-Oct-18 19:30N 59°24' E 018°21'0 0.0
2017-Oct-18 18:59N 59°24' E 018°21'0 0.0
2017-Oct-18 18:30N 59°24' E 018°21'0 0.0
2017-Oct-18 17:59N 59°24' E 018°21'0 0.0
2017-Oct-18 17:30N 59°24' E 018°21'1 2.5
2017-Oct-18 16:59N 59°25' E 018°22'1 2.7
2017-Oct-18 16:30N 59°24' E 018°21'1 2.4
2017-Oct-18 16:00N 59°24' E 018°23'1 2.2
2017-Oct-18 15:31N 59°24' E 018°21'0 0.2
2017-Oct-18 15:01N 59°24' E 018°21'0 0.0
2017-Oct-18 14:00N 59°24' E 018°21'1 1.6
2017-Oct-18 13:30N 59°24' E 018°23'1 1.5
2017-Oct-18 12:59N 59°23' E 018°24'2 3.7
2017-Oct-18 12:30N 59°22' E 018°26'3 5.3
2017-Oct-18 12:00N 59°24' E 018°22'1 1.5
2017-Oct-18 11:30N 59°23' E 018°23'1 2.5
2017-Oct-18 11:00N 59°24' E 018°21'0 0.0
2017-Oct-18 10:30N 59°24' E 018°21'1 1.8
2017-Oct-18 10:01N 59°24' E 018°23'1 1.7
2017-Oct-18 09:30N 59°24' E 018°21'0 0.1
2017-Oct-18 09:00N 59°24' E 018°21'0 0.0
2017-Oct-18 08:30N 59°24' E 018°21'0 0.0
2017-Oct-18 08:00N 59°24' E 018°21'3 4.3
2017-Oct-18 07:12N 59°22' E 018°27'3 0.3
2017-Oct-17 18:12N 59°24' E 018°21'0 0.0
2017-Oct-17 18:00N 59°24' E 018°21'0 0.0
2017-Oct-17 17:30N 59°24' E 018°21'1 2.7
2017-Oct-17 17:00N 59°25' E 018°22'1 2.7
2017-Oct-17 16:30N 59°24' E 018°21'1 2.8
2017-Oct-17 16:00N 59°23' E 018°24'1 1.3
2017-Oct-17 15:30N 59°24' E 018°22'1 1.4
2017-Oct-17 15:00N 59°24' E 018°21'1 1.5
2017-Oct-17 14:30N 59°24' E 018°23'1 1.6
2017-Oct-17 14:00N 59°24' E 018°21'1 1.6
2017-Oct-17 13:30N 59°24' E 018°23'1 1.8
2017-Oct-17 13:00N 59°23' E 018°24'2 3.5
2017-Oct-17 12:31N 59°22' E 018°26'2 4.7
2017-Oct-17 12:00N 59°24' E 018°23'0 0.4
2017-Oct-17 11:29N 59°24' E 018°23'1 2.1
2017-Oct-17 11:00N 59°24' E 018°21'0 0.9
2017-Oct-17 10:30N 59°24' E 018°22'1 1.2
2017-Oct-17 10:00N 59°24' E 018°23'1 1.8
2017-Oct-17 09:30N 59°24' E 018°21'0 0.1
2017-Oct-17 09:00N 59°24' E 018°21'0 0.0
2017-Oct-17 08:30N 59°24' E 018°21'0 0.0
2017-Oct-17 08:00N 59°24' E 018°21'1 2.9
2017-Oct-17 07:30N 59°23' E 018°24'2 3.1
2017-Oct-17 06:51N 59°22' E 018°27'3 8.1
2017-Oct-17 06:29N 59°24' E 018°22'1 1.6
2017-Oct-17 06:00N 59°24' E 018°23'1 2.5
2017-Oct-17 05:30N 59°24' E 018°21'0 0.0
2017-Oct-17 05:00N 59°24' E 018°21'1 1.5
2017-Oct-17 04:30N 59°25' E 018°22'1 1.4
2017-Oct-17 04:00N 59°24' E 018°21'0 0.0
2017-Oct-17 03:30N 59°24' E 018°21'0 0.0
2017-Oct-17 03:00N 59°24' E 018°21'0 0.0
2017-Oct-17 02:30N 59°24' E 018°21'0 0.0
2017-Oct-17 02:00N 59°24' E 018°21'0 0.0
2017-Oct-17 01:30N 59°24' E 018°21'0 0.0
2017-Oct-17 01:00N 59°24' E 018°21'0 0.0
2017-Oct-17 00:30N 59°24' E 018°21'0 0.0
2017-Oct-17 00:00N 59°24' E 018°21'0 0.0
2017-Oct-16 23:29N 59°24' E 018°21'0 0.0
2017-Oct-16 23:00N 59°24' E 018°21'0 0.0
2017-Oct-16 22:30N 59°24' E 018°21'0 0.0
2017-Oct-16 22:00N 59°24' E 018°21'0 0.0
2017-Oct-16 21:30N 59°24' E 018°21'0 0.0
2017-Oct-16 21:00N 59°24' E 018°21'0 0.0
2017-Oct-16 20:30N 59°24' E 018°21'0 0.0
2017-Oct-16 20:00N 59°24' E 018°21'0 0.0
2017-Oct-16 19:30N 59°24' E 018°21'0 0.0
2017-Oct-16 19:00N 59°24' E 018°21'0 0.0
2017-Oct-16 18:30N 59°24' E 018°21'0 0.0
2017-Oct-16 18:00N 59°24' E 018°21'0 0.0
2017-Oct-16 17:30N 59°24' E 018°21'1 2.3
2017-Oct-16 16:57N 59°25' E 018°22'1 2.9
2017-Oct-16 16:30N 59°24' E 018°21'1 2.0
2017-Oct-16 16:00N 59°24' E 018°23'0 0.3
2017-Oct-16 15:30N 59°24' E 018°23'1 1.6
2017-Oct-16 15:01N 59°24' E 018°21'1 1.5
2017-Oct-16 14:30N 59°24' E 018°22'0 0.2
2017-Oct-16 13:29N 59°24' E 018°22'1 2.9
2017-Oct-16 13:00N 59°23' E 018°25'2 3.2
2017-Oct-16 12:28N 59°22' E 018°26'3 7.0
2017-Oct-16 12:00N 59°24' E 018°22'1 1.8
2017-Oct-16 11:30N 59°24' E 018°23'1 2.2
2017-Oct-16 11:00N 59°24' E 018°21'0 0.1
2017-Oct-16 10:30N 59°24' E 018°21'2 4.1
2017-Oct-16 09:59N 59°23' E 018°25'2 4.6
2017-Oct-16 09:31N 59°24' E 018°21'0 0.1
2017-Oct-16 08:59N 59°24' E 018°21'0 0.0
2017-Oct-16 08:30N 59°24' E 018°21'0 0.0
2017-Oct-16 08:00N 59°24' E 018°21'1 3.0
2017-Oct-16 07:31N 59°23' E 018°24'1 1.8
2017-Oct-16 06:49N 59°23' E 018°26'2 6.9
2017-Oct-16 06:30N 59°24' E 018°22'1 1.2
2017-Oct-16 06:00N 59°24' E 018°23'1 2.4
2017-Oct-16 05:30N 59°24' E 018°21'0 0.1
2017-Oct-16 05:01N 59°24' E 018°21'1 1.6
2017-Oct-16 04:30N 59°25' E 018°22'1 1.5
2017-Oct-16 03:59N 59°24' E 018°21'0 0.0
2017-Oct-16 03:30N 59°24' E 018°21'0 0.0
2017-Oct-16 03:00N 59°24' E 018°21'0 0.0
2017-Oct-16 02:30N 59°24' E 018°21'0 0.0
2017-Oct-16 02:00N 59°24' E 018°21'0 0.0
2017-Oct-16 01:30N 59°24' E 018°21'0 0.0
2017-Oct-16 01:00N 59°24' E 018°21'0 0.0
2017-Oct-16 00:30N 59°24' E 018°21'0 0.0
2017-Oct-16 00:00N 59°24' E 018°21'0 0.0
2017-Oct-15 23:30N 59°24' E 018°21'0 0.0
2017-Oct-15 23:00N 59°24' E 018°21'0 0.0
2017-Oct-15 22:29N 59°24' E 018°21'0 0.0
2017-Oct-15 22:00N 59°24' E 018°21'0 0.0
2017-Oct-15 21:30N 59°24' E 018°21'0 0.0
2017-Oct-15 21:01N 59°24' E 018°21'0 0.0
2017-Oct-15 20:30N 59°24' E 018°21'0 0.0
2017-Oct-15 20:00N 59°24' E 018°21'0 0.0
2017-Oct-15 19:30N 59°24' E 018°21'0 0.0
2017-Oct-15 19:00N 59°24' E 018°21'0 0.0
2017-Oct-15 18:30N 59°24' E 018°21'0 0.0
2017-Oct-15 18:00N 59°24' E 018°21'0 0.0
2017-Oct-15 17:30N 59°24' E 018°21'0 0.0
2017-Oct-15 17:00N 59°24' E 018°21'2 3.0
2017-Oct-15 16:30N 59°23' E 018°24'1 1.9
2017-Oct-15 16:00N 59°24' E 018°22'1 2.0
2017-Oct-15 15:30N 59°23' E 018°24'2 2.7
2017-Oct-15 14:47N 59°22' E 018°26'3 4.3
2017-Oct-15 13:59N 59°24' E 018°21'1 2.7
2017-Oct-15 13:27N 59°25' E 018°22'4 7.9
2017-Oct-15 13:00N 59°27' E 018°29'1 1.6
2017-Oct-15 12:23N 59°28' E 018°27'3 6.8
2017-Oct-15 12:00N 59°26' E 018°23'2 3.2
2017-Oct-15 11:31N 59°25' E 018°21'1 2.9
2017-Oct-15 11:00N 59°24' E 018°23'0 0.7
2017-Oct-15 10:31N 59°24' E 018°22'1 1.3
2017-Oct-15 10:00N 59°24' E 018°21'2 3.3
2017-Oct-15 09:30N 59°23' E 018°24'2 2.2
2017-Oct-15 08:43N 59°22' E 018°26'1 5.4
2017-Oct-15 08:28N 59°23' E 018°25'2 4.9
2017-Oct-15 08:00N 59°25' E 018°22'1 1.3
2017-Oct-15 07:30N 59°24' E 018°21'0 0.0
2017-Oct-15 07:00N 59°24' E 018°21'1 2.0
2017-Oct-15 06:30N 59°24' E 018°23'1 2.1
2017-Oct-15 06:00N 59°24' E 018°21'0 0.0
2017-Oct-15 05:30N 59°24' E 018°21'0 0.0
2017-Oct-15 05:00N 59°24' E 018°21'0 0.0
2017-Oct-15 04:30N 59°24' E 018°21'0 0.0
2017-Oct-15 04:00N 59°24' E 018°21'0 0.0
2017-Oct-15 03:30N 59°24' E 018°21'0 0.0
2017-Oct-15 03:00N 59°24' E 018°21'0 0.0
2017-Oct-15 02:30N 59°24' E 018°21'0 0.0
2017-Oct-15 02:00N 59°24' E 018°21'0 0.0
2017-Oct-15 01:30N 59°24' E 018°21'0 0.0
2017-Oct-15 01:00N 59°24' E 018°21'0 0.0
2017-Oct-15 00:30N 59°24' E 018°21'0 0.0
2017-Oct-15 00:00N 59°24' E 018°21'0 0.0
2017-Oct-14 23:30N 59°24' E 018°21'0 0.0
2017-Oct-14 23:00N 59°24' E 018°21'0 0.0
2017-Oct-14 22:30N 59°24' E 018°21'0 0.0
2017-Oct-14 22:00N 59°24' E 018°21'0 0.0
2017-Oct-14 21:30N 59°24' E 018°21'0 0.0
2017-Oct-14 21:00N 59°24' E 018°21'0 0.0
2017-Oct-14 20:30N 59°24' E 018°21'0 0.0
2017-Oct-14 20:00N 59°24' E 018°21'0 0.0
2017-Oct-14 19:30N 59°24' E 018°21'0 0.0
2017-Oct-14 18:59N 59°24' E 018°21'0 0.0
2017-Oct-14 18:29N 59°24' E 018°21'0 0.0
2017-Oct-14 18:00N 59°24' E 018°21'0 0.0
2017-Oct-14 17:29N 59°24' E 018°21'0 0.0
2017-Oct-14 17:00N 59°24' E 018°21'0 0.0
2017-Oct-14 16:30N 59°24' E 018°21'0 0.0
2017-Oct-14 16:00N 59°24' E 018°21'1 2.6
2017-Oct-14 15:30N 59°24' E 018°24'1 2.4
2017-Oct-14 14:58N 59°24' E 018°21'1 2.6
2017-Oct-14 14:30N 59°24' E 018°23'1 2.5
2017-Oct-14 14:00N 59°24' E 018°21'0 1.0
2017-Oct-14 13:30N 59°24' E 018°22'3 5.7
2017-Oct-14 13:00N 59°22' E 018°26'1 1.9
2017-Oct-14 12:30N 59°23' E 018°25'2 4.7
2017-Oct-14 12:00N 59°24' E 018°21'1 1.4
2017-Oct-14 11:30N 59°25' E 018°22'1 1.4
2017-Oct-14 11:00N 59°24' E 018°21'0 0.0
2017-Oct-14 10:30N 59°24' E 018°21'1 2.0
2017-Oct-14 10:00N 59°24' E 018°23'0 0.7
2017-Oct-14 09:30N 59°24' E 018°22'3 6.5
2017-Oct-14 09:00N 59°26' E 018°26'0 0.9
2017-Oct-14 08:29N 59°26' E 018°25'3 6.2
2017-Oct-14 08:00N 59°24' E 018°21'2 3.7
2017-Oct-14 07:30N 59°23' E 018°24'2 3.1
2017-Oct-14 06:59N 59°22' E 018°26'3 5.5
2017-Oct-14 06:30N 59°24' E 018°23'0 0.3
2017-Oct-14 06:00N 59°24' E 018°23'1 2.2
2017-Oct-14 05:30N 59°24' E 018°21'0 0.0
2017-Oct-14 05:00N 59°24' E 018°21'0 0.0
2017-Oct-14 04:30N 59°24' E 018°21'0 0.0
2017-Oct-14 04:00N 59°24' E 018°21'0 0.0
2017-Oct-14 03:30N 59°24' E 018°21'0 0.0
2017-Oct-14 03:00N 59°24' E 018°21'0 0.0
2017-Oct-14 02:30N 59°24' E 018°21'0 0.0
2017-Oct-14 02:00N 59°24' E 018°21'0 0.0
2017-Oct-14 01:29N 59°24' E 018°21'0 0.0
2017-Oct-14 01:00N 59°24' E 018°21'0 0.0
2017-Oct-14 00:30N 59°24' E 018°21'0 0.0
2017-Oct-14 00:00N 59°24' E 018°21'0 0.0
2017-Oct-13 23:30N 59°24' E 018°21'0 0.0
2017-Oct-13 23:00N 59°24' E 018°21'0 0.0
2017-Oct-13 22:30N 59°24' E 018°21'0 0.0
2017-Oct-13 22:00N 59°24' E 018°21'0 0.0
2017-Oct-13 21:30N 59°24' E 018°21'0 0.0
2017-Oct-13 21:00N 59°24' E 018°21'0 0.0
2017-Oct-13 20:30N 59°24' E 018°21'0 0.0
2017-Oct-13 20:00N 59°24' E 018°21'0 0.0
2017-Oct-13 19:30N 59°24' E 018°21'0 0.0
2017-Oct-13 19:00N 59°24' E 018°21'0 0.0
2017-Oct-13 18:30N 59°24' E 018°21'0 0.9
2017-Oct-13 18:01N 59°24' E 018°22'1 2.9
2017-Oct-13 17:30N 59°23' E 018°25'1 1.4
2017-Oct-13 17:00N 59°23' E 018°26'3 5.1
2017-Oct-13 16:30N 59°24' E 018°21'2 3.2
2017-Oct-13 16:00N 59°23' E 018°24'2 3.0
2017-Oct-13 15:28N 59°24' E 018°21'0 0.0
2017-Oct-13 15:00N 59°24' E 018°21'2 3.1
2017-Oct-13 14:30N 59°23' E 018°24'2 3.3
2017-Oct-13 14:00N 59°25' E 018°22'1 1.8
2017-Oct-13 13:31N 59°24' E 018°22'1 1.7
2017-Oct-13 13:00N 59°23' E 018°24'1 1.1
2017-Oct-13 12:30N 59°24' E 018°23'1 1.7
2017-Oct-13 12:00N 59°24' E 018°21'1 2.1
2017-Oct-13 11:30N 59°24' E 018°23'1 2.1
2017-Oct-13 11:00N 59°24' E 018°21'0 0.0
2017-Oct-13 10:30N 59°24' E 018°21'2 3.4
2017-Oct-13 10:00N 59°23' E 018°24'2 3.4
2017-Oct-13 09:30N 59°24' E 018°21'0 0.0
2017-Oct-13 08:57N 59°24' E 018°21'0 0.0
2017-Oct-13 08:29N 59°24' E 018°21'0 0.0
2017-Oct-13 08:00N 59°24' E 018°21'1 2.9
2017-Oct-13 07:30N 59°23' E 018°24'2 3.2
2017-Oct-13 06:53N 59°22' E 018°26'3 6.6
2017-Oct-13 06:30N 59°24' E 018°23'0 0.0
2017-Oct-13 06:00N 59°24' E 018°23'1 1.7
2017-Oct-13 05:30N 59°24' E 018°21'0 0.0
2017-Oct-13 05:00N 59°24' E 018°21'0 0.9
2017-Oct-13 04:30N 59°25' E 018°22'0 0.9
2017-Oct-13 04:00N 59°24' E 018°21'0 0.0
2017-Oct-13 03:30N 59°24' E 018°21'0 0.0
2017-Oct-13 03:00N 59°24' E 018°21'0 0.0
2017-Oct-13 02:30N 59°24' E 018°21'0 0.0
2017-Oct-13 02:00N 59°24' E 018°21'0 0.0
2017-Oct-13 01:30N 59°24' E 018°21'0 0.0
2017-Oct-13 01:00N 59°24' E 018°21'0 0.0
2017-Oct-13 00:30N 59°24' E 018°21'0 0.0
2017-Oct-13 00:00N 59°24' E 018°21'0 0.0
2017-Oct-12 23:30N 59°24' E 018°21'0 0.0
2017-Oct-12 23:01N 59°24' E 018°21'0 0.0
2017-Oct-12 22:30N 59°24' E 018°21'0 0.0
2017-Oct-12 22:00N 59°24' E 018°21'0 0.0
2017-Oct-12 21:31N 59°24' E 018°21'0 0.0
2017-Oct-12 21:00N 59°24' E 018°21'0 0.0
2017-Oct-12 20:30N 59°24' E 018°21'0 0.0
2017-Oct-12 20:00N 59°24' E 018°21'0 0.0
2017-Oct-12 19:30N 59°24' E 018°21'0 0.0
2017-Oct-12 19:01N 59°24' E 018°21'0 0.0
2017-Oct-12 18:29N 59°24' E 018°21'0 0.0
2017-Oct-12 18:00N 59°24' E 018°21'0 0.0
2017-Oct-12 17:31N 59°24' E 018°21'1 2.6
2017-Oct-12 17:01N 59°25' E 018°22'1 2.6
2017-Oct-12 16:31N 59°24' E 018°22'1 2.2
2017-Oct-12 16:00N 59°23' E 018°24'1 2.2
2017-Oct-12 15:30N 59°24' E 018°22'0 0.7
2017-Oct-12 15:00N 59°24' E 018°21'1 1.6
2017-Oct-12 14:30N 59°24' E 018°23'1 1.6
2017-Oct-12 13:59N 59°24' E 018°21'1 1.2
2017-Oct-12 13:30N 59°24' E 018°22'1 2.1
2017-Oct-12 13:00N 59°23' E 018°24'2 3.5
2017-Oct-12 12:30N 59°22' E 018°26'2 4.8
2017-Oct-12 12:01N 59°24' E 018°23'0 0.0
2017-Oct-12 11:30N 59°24' E 018°23'1 0.6
2017-Oct-12 10:08N 59°24' E 018°21'1 6.4
2017-Oct-12 10:00N 59°24' E 018°23'1 1.6
2017-Oct-12 09:30N 59°24' E 018°21'0 0.0
2017-Oct-12 09:00N 59°24' E 018°21'0 0.0
2017-Oct-12 08:30N 59°24' E 018°21'0 0.0
2017-Oct-12 07:47N 59°24' E 018°21'2 5.5
2017-Oct-12 07:30N 59°23' E 018°24'1 1.2
2017-Oct-12 06:44N 59°23' E 018°26'2 9.6
2017-Oct-12 06:30N 59°24' E 018°22'1 1.3
2017-Oct-12 06:00N 59°24' E 018°23'1 1.7
2017-Oct-12 05:30N 59°24' E 018°21'0 0.0
2017-Oct-12 04:59N 59°24' E 018°21'1 1.4
2017-Oct-12 04:30N 59°25' E 018°22'1 1.4
2017-Oct-12 04:00N 59°24' E 018°21'0 0.0
2017-Oct-12 03:30N 59°24' E 018°21'0 0.0
2017-Oct-12 03:00N 59°24' E 018°21'0 0.0
2017-Oct-12 02:30N 59°24' E 018°21'0 0.0
2017-Oct-12 02:00N 59°24' E 018°21'0 0.0
2017-Oct-12 01:30N 59°24' E 018°21'0 0.0
2017-Oct-12 01:00N 59°24' E 018°21'0 0.0
2017-Oct-12 00:30N 59°24' E 018°21'0 0.0
2017-Oct-12 00:00N 59°24' E 018°21'0 0.0
2017-Oct-11 23:30N 59°24' E 018°21'0 0.0
2017-Oct-11 23:00N 59°24' E 018°21'0 0.0
2017-Oct-11 22:30N 59°24' E 018°21'0 0.0
2017-Oct-11 22:00N 59°24' E 018°21'0 0.0
2017-Oct-11 21:30N 59°24' E 018°21'0 0.0
2017-Oct-11 21:00N 59°24' E 018°21'0 0.0
2017-Oct-11 20:30N 59°24' E 018°21'0 0.0
2017-Oct-11 20:00N 59°24' E 018°21'0 0.0
2017-Oct-11 19:30N 59°24' E 018°21'0 0.0
2017-Oct-11 19:00N 59°24' E 018°21'0 0.0
2017-Oct-11 18:30N 59°24' E 018°21'0 0.0
2017-Oct-11 18:00N 59°24' E 018°21'0 0.0
2017-Oct-11 17:30N 59°24' E 018°21'1 2.7
2017-Oct-11 17:00N 59°25' E 018°22'1 0.1
2017-Oct-11 00:00N 59°24' E 018°21'0 0.0
2017-Oct-10 23:31N 59°24' E 018°21'0 0.0
2017-Oct-10 23:00N 59°24' E 018°21'0 0.0
2017-Oct-10 22:30N 59°24' E 018°21'0 0.0
2017-Oct-10 22:00N 59°24' E 018°21'0 0.0
2017-Oct-10 21:30N 59°24' E 018°21'0 0.0
2017-Oct-10 21:00N 59°24' E 018°21'0 0.0
2017-Oct-10 20:30N 59°24' E 018°21'0 0.0
2017-Oct-10 20:00N 59°24' E 018°21'0 0.0
2017-Oct-10 19:30N 59°24' E 018°21'0 0.0
2017-Oct-10 19:00N 59°24' E 018°21'0 0.0
2017-Oct-10 18:30N 59°24' E 018°21'0 0.0
2017-Oct-10 18:00N 59°24' E 018°21'0 0.0
2017-Oct-10 17:30N 59°24' E 018°21'1 2.7
2017-Oct-10 16:59N 59°25' E 018°22'1 2.7
2017-Oct-10 16:30N 59°24' E 018°21'1 2.3
2017-Oct-10 15:59N 59°23' E 018°23'0 0.7
2017-Oct-10 15:30N 59°24' E 018°23'1 1.7
2017-Oct-10 15:01N 59°24' E 018°21'0 0.0
2017-Oct-10 14:00N 59°24' E 018°21'1 1.3
2017-Oct-10 13:30N 59°24' E 018°22'  

Dump ship's entire track history